Weather reports worldwide

Advertisment
Glen Ogle, United Kingdom (3148): temperature & dewpoint: 10.12.2017 05:00:00 - 16.12.2017 05:00:00 (GMT)Glen Ogle, United Kingdom (3148): wind speed & gusts: 10.12.2017 05:00:00 - 16.12.2017 05:00:00 (GMT)Glen Ogle, United Kingdom (3148): wind direction: 10.12.2017 05:00:00 - 16.12.2017 05:00:00 (GMT)
Date & Time tt [°C] td [°C] ff [km/h] ff [kn] fx [km/h] fx [kn] dd
16.12.2017 05:00:00 - - - - - - -
16.12.2017 04:00:00 -1,5 -3,3 15 8 - - NW
16.12.2017 03:00:00 -2,6 -3,2 13 7 - - WNW
16.12.2017 02:00:00 -2,4 -3,2 16 9 - - WNW
16.12.2017 01:00:00 -2,3 -3,9 15 8 - - WNW
16.12.2017 00:00:00 -1,8 -4,3 18 10 - - NNW
15.12.2017 23:00:00 -1,5 -4,1 21 11 - - NW
15.12.2017 22:00:00 -1,6 -4,2 28 15 - - NNW
15.12.2017 21:00:00 -1,4 -3,4 34 18 50 27 NNW
15.12.2017 20:00:00 -1,3 -2,2 35 19 48 26 NNW
15.12.2017 19:00:00 -1,3 -1,8 34 18 46 25 NNW
15.12.2017 18:00:00 -0,9 -1,6 37 20 48 26 NNW
15.12.2017 17:00:00 -1,1 -2,6 26 14 - - NW
15.12.2017 16:00:00 -0,9 -2,5 21 11 - - NW
15.12.2017 15:00:00 -0,5 -6,2 9 5 - - W
15.12.2017 14:00:00 -0,4 -6,2 24 13 63 34 NW
15.12.2017 13:00:00 0,1 -3,5 31 17 - - NNW
15.12.2017 12:00:00 -0,2 -4,3 34 18 - - NNW
15.12.2017 11:00:00 -0,6 -3,5 26 14 59 32 N
15.12.2017 10:00:00 -0,5 -2,1 41 22 70 38 N
15.12.2017 09:00:00 -0,8 -1,7 42 23 55 30 N
15.12.2017 08:00:00 -0,7 -1,3 48 26 80 43 N
15.12.2017 07:00:00 -0,4 -1,9 46 25 70 38 N
15.12.2017 06:00:00 -0,3 -1,3 48 26 67 36 N
15.12.2017 05:00:00 -0,1 -0,3 31 17 54 29 NNW
15.12.2017 04:00:00 -0,3 -0,5 29 16 52 28 NNW
15.12.2017 03:00:00 -0,6 -1,5 35 19 54 29 NNW
15.12.2017 02:00:00 -1,0 -2,3 13 7 50 27 WNW
15.12.2017 01:00:00 -1,6 -2,0 28 15 - - N
15.12.2017 00:00:00 -2,0 -2,3 15 8 - - N
14.12.2017 23:00:00 -2,5 -3,3 15 8 - - NNE
14.12.2017 22:00:00 -2,0 -2,1 22 12 - - NE
14.12.2017 21:00:00 -1,2 -1,2 24 13 - - NE
14.12.2017 20:00:00 -0,7 -0,7 5 3 - - NNE
14.12.2017 19:00:00 -1,0 -1,0 8 4 - - WNW
14.12.2017 18:00:00 -1,3 -1,3 15 8 - - WNW
14.12.2017 17:00:00 -1,3 -1,3 21 11 - - WNW
14.12.2017 16:00:00 -1,9 -2,0 22 12 - - W
14.12.2017 15:00:00 -2,1 -3,1 21 11 - - WNW
14.12.2017 14:00:00 -2,0 -5,4 16 9 - - NW
14.12.2017 13:00:00 -1,9 -3,0 18 10 - - NNW
14.12.2017 12:00:00 -1,7 -1,7 15 8 - - NNW
14.12.2017 11:00:00 -1,4 -1,4 11 6 - - NNW
14.12.2017 10:00:00 -1,3 -1,3 4 2 - - SW
14.12.2017 09:00:00 -1,2 -1,2 13 7 - - SSE
14.12.2017 08:00:00 -1,4 -1,4 9 5 - - S
14.12.2017 07:00:00 -1,5 -1,5 11 6 - - W
14.12.2017 06:00:00 -1,4 -1,4 16 9 - - SSW
14.12.2017 05:00:00 -1,7 -1,7 15 8 - - SW
14.12.2017 04:00:00 -1,5 -1,5 13 7 - - SW
14.12.2017 03:00:00 -1,4 -1,4 22 12 52 28 W
14.12.2017 02:00:00 -1,9 -1,9 26 14 46 25 W
14.12.2017 01:00:00 -1,8 -1,8 34 18 - - W
14.12.2017 00:00:00 -2,1 -2,1 34 18 48 26 W
13.12.2017 23:00:00 -2,3 -2,3 31 17 - - W
13.12.2017 22:00:00 -2,1 -2,1 26 14 - - W
13.12.2017 21:00:00 -2,2 -2,2 31 17 - - W
13.12.2017 20:00:00 -2,1 -2,1 26 14 - - W
13.12.2017 19:00:00 -2,0 -2,0 24 13 - - W
13.12.2017 18:00:00 -1,5 -1,8 24 13 - - WSW
13.12.2017 17:00:00 -1,6 -1,6 16 9 - - WNW
13.12.2017 16:00:00 -1,8 -2,0 21 11 - - W
13.12.2017 15:00:00 -1,6 -1,8 22 12 - - WSW
13.12.2017 14:00:00 -1,3 -2,0 24 13 - - W
13.12.2017 13:00:00 -0,8 -0,9 22 12 - - W
13.12.2017 12:00:00 -0,7 -0,7 24 13 50 27 W
13.12.2017 11:00:00 -0,8 -0,8 28 15 - - W
13.12.2017 10:00:00 -0,7 -0,7 31 17 48 26 W
13.12.2017 09:00:00 -0,3 -0,3 21 11 - - W
13.12.2017 08:00:00 1,1 0,8 31 17 63 34 SSW
13.12.2017 07:00:00 1,0 1,0 31 17 63 34 SSW
13.12.2017 06:00:00 0,6 0,6 39 21 54 29 S
13.12.2017 05:00:00 0,4 0,4 34 18 - - S
13.12.2017 04:00:00 0,2 0,0 22 12 - - S
13.12.2017 03:00:00 0,9 0,6 21 11 - - WSW
13.12.2017 02:00:00 0,4 0,4 21 11 - - W
13.12.2017 01:00:00 0,1 0,1 28 15 - - W
13.12.2017 00:00:00 0,4 0,4 26 14 - - W
12.12.2017 23:00:00 0,0 0,0 31 17 48 26 W
12.12.2017 22:00:00 0,0 0,0 29 16 - - WNW
12.12.2017 21:00:00 -0,6 -0,6 13 7 - - W
12.12.2017 20:00:00 -0,7 -0,7 35 19 46 25 S
12.12.2017 19:00:00 -0,8 -0,8 31 17 59 32 S
12.12.2017 18:00:00 -0,5 -0,5 41 22 57 31 S
12.12.2017 17:00:00 -0,4 -0,4 29 16 46 25 S
12.12.2017 16:00:00 -0,3 -0,3 29 16 48 26 S
12.12.2017 15:00:00 0,2 0,1 37 20 50 27 S
12.12.2017 14:00:00 0,5 -0,5 31 17 50 27 SSW
12.12.2017 13:00:00 0,1 -0,6 24 13 - - SSW
12.12.2017 12:00:00 0,2 -2,6 16 9 - - SSW
12.12.2017 11:00:00 -1,1 -3,3 2 1 - - W
12.12.2017 10:00:00 -0,8 -2,9 4 2 - - SW
12.12.2017 09:00:00 -0,9 -2,8 11 6 - - W
12.12.2017 08:00:00 -1,3 -4,1 8 4 - - WNW
12.12.2017 07:00:00 -1,6 -3,5 8 4 - - NW
12.12.2017 06:00:00 -0,7 -2,9 9 5 - - W
12.12.2017 05:00:00 -1,3 -2,6 8 4 - - NW
12.12.2017 04:00:00 -1,8 -3,2 8 4 - - ENE
12.12.2017 03:00:00 -1,4 -3,4 11 6 - - NW
12.12.2017 02:00:00 -0,5 -3,5 16 9 - - NNW
12.12.2017 01:00:00 -1,6 -3,1 15 8 - - WNW
12.12.2017 00:00:00 -0,9 -2,0 11 6 - - NW
11.12.2017 23:00:00 -0,6 -2,6 18 10 - - NNW
11.12.2017 22:00:00 -0,6 -2,1 16 9 57 31 N
11.12.2017 21:00:00 0,0 -2,7 48 26 63 34 N
11.12.2017 20:00:00 -0,5 -2,5 48 26 74 40 NNW
11.12.2017 19:00:00 -1,1 -2,4 13 7 46 25 N
11.12.2017 18:00:00 -0,8 -3,0 31 17 57 31 N
11.12.2017 17:00:00 -0,1 -2,1 29 16 67 36 NNW
11.12.2017 16:00:00 -1,0 -2,9 18 10 57 31 NNW
11.12.2017 15:00:00 -0,8 -2,9 22 12 59 32 NNW
11.12.2017 14:00:00 -0,4 -2,1 48 26 57 31 NNW
11.12.2017 13:00:00 0,2 -3,5 31 17 61 33 N
11.12.2017 12:00:00 -0,6 -2,1 42 23 50 27 NNW
11.12.2017 11:00:00 -0,8 -2,7 29 16 - - NNW
11.12.2017 10:00:00 -1,6 -3,9 34 18 54 29 NNW
11.12.2017 09:00:00 -1,1 -1,7 35 19 - - N
11.12.2017 08:00:00 -3,0 -3,5 8 4 - - NNW
11.12.2017 07:00:00 -2,5 -2,8 18 10 - - NNW
11.12.2017 06:00:00 -2,4 -2,7 8 4 - - NW
11.12.2017 05:00:00 -2,8 -3,0 16 9 - - NNW
11.12.2017 04:00:00 -2,8 -2,9 13 7 - - WNW
11.12.2017 03:00:00 -2,7 -3,0 9 5 - - WNW
11.12.2017 02:00:00 -2,8 -3,6 11 6 - - W
11.12.2017 01:00:00 -3,3 -3,8 16 9 - - WNW
11.12.2017 00:00:00 -4,6 -5,9 11 6 - - NNW
10.12.2017 23:00:00 -4,3 -6,3 13 7 - - WNW
10.12.2017 22:00:00 -3,4 -5,9 13 7 - - W
10.12.2017 21:00:00 -4,2 -6,8 9 5 - - NNW
10.12.2017 20:00:00 -4,8 -7,6 9 5 - - NW
10.12.2017 19:00:00 -3,7 -6,9 8 4 - - NNE
10.12.2017 18:00:00 -4,6 -7,0 11 6 - - NNW
10.12.2017 17:00:00 -5,2 -6,8 11 6 - - NNW
10.12.2017 16:00:00 -4,7 -6,9 5 3 - - N
10.12.2017 15:00:00 -4,5 -11,7 8 4 - - NNW
10.12.2017 14:00:00 -4,4 -11,7 13 7 - - N
10.12.2017 13:00:00 -4,4 -12,2 11 6 - - N
10.12.2017 12:00:00 -4,1 -11,7 9 5 - - NNE
10.12.2017 11:00:00 -4,5 -9,6 15 8 - - NNE
10.12.2017 10:00:00 -4,9 -7,4 21 11 - - NNE
10.12.2017 09:00:00 -4,9 -6,5 16 9 - - NNE
10.12.2017 08:00:00 -5,3 -6,6 11 6 - - NNE
10.12.2017 07:00:00 -4,9 -6,1 9 5 - - N
10.12.2017 06:00:00 -4,1 -4,9 22 12 - - N
10.12.2017 05:00:00 -4,4 -4,9 13 7 - - N

tt = temperature
td = dewpoint
ff = wind speed
fx = gusts
dd = wind direction

Next stations